Terminal Aerodrome Forecast
Issued by NWS Amarillo, TX

Home | Current Version | Previous Version | Text Only | Print | Product List | Glossary On
Versions: 1 2 3 4 5 6 7 8 9 10 11 12 13 14 15 16
000
FTUS44 KAMA 160200 AAA
TAFDHT
TAF AMD
KDHT 160204Z 1602/1624 03008KT 4SM BR OVC006
      TEMPO 1602/1604 1SM BR OVC002
     FM160400 VRB04KT P6SM OVC004
      TEMPO 1604/1608 2SM BR OVC001
     FM160800 VRB04KT 2SM BR OVC001
     FM161400 21008KT P6SM SCT005 OVC015
     FM161600 18011KT P6SM SCT015 BKN100=

USA.gov is the U.S. government's official web portal to all federal, state and local government web resources and services.